Albertville, Minnesota
Current Conditions -  °F | °C
As of 6:55 PM on Monday 24 Nov 2014 (Local Time) from KCFE Reporting Station
Overcast Overcast  
Wind Chill: -16°   Ceiling: 2500
Heat Index: -9°   Visibility: 10mi
Dew Point: -13°   Wind: 12mph
Humidity: 73%   Direction: 290°WNW
Pressure: 29.81"   Gusts: 17mph
Location:  45.24°N, 93.65°W
Report Text: KCFE 250055Z AUTO 29010G15KT 10SM BKN025 OVC085 M09/M13 A2981 RMK AO2 T10901130
Loading
Personal Weather Stations






























Interactive Weather Map New forecast layout! Learn more

10-Day Weather Forecast

Advertisements
Track Severe Weather on mobile